createdAt,value
2022-08-28T00:00:00.277Z,2.22
2022-08-28T00:02:26.898Z,2.58
2022-08-28T00:04:53.623Z,2.05
2022-08-28T00:07:20.279Z,1.88
2022-08-28T00:09:46.975Z,2.97
2022-08-28T00:12:13.640Z,2.10
2022-08-28T00:14:40.679Z,2.05
2022-08-28T00:17:07.321Z,2.63
2022-08-28T00:19:38.464Z,2.20
2022-08-28T00:22:05.839Z,2.28
2022-08-28T00:24:32.434Z,2.05
2022-08-28T00:27:17.447Z,1.90
2022-08-28T00:29:45.706Z,2.15
2022-08-28T00:32:12.653Z,3.50
2022-08-28T00:34:39.648Z,2.25
2022-08-28T00:37:06.346Z,1.80
2022-08-28T00:39:32.951Z,2.00
2022-08-28T00:41:59.592Z,2.30
2022-08-28T00:44:27.778Z,2.60
2022-08-28T00:46:55.976Z,2.08
2022-08-28T00:49:31.014Z,2.35
2022-08-28T00:52:10.816Z,2.45
2022-08-28T00:54:39.009Z,2.00
2022-08-28T00:57:07.208Z,1.88
2022-08-28T00:59:34.476Z,1.85
2022-08-28T01:02:01.179Z,2.60
2022-08-28T01:04:30.060Z,1.80
2022-08-28T01:06:57.610Z,2.88
2022-08-28T01:09:25.789Z,2.50
2022-08-28T01:11:54.320Z,2.08
2022-08-28T01:14:23.254Z,2.42
2022-08-28T01:16:55.419Z,2.28
2022-08-28T01:19:48.347Z,2.63
2022-08-28T01:22:41.568Z,1.90
2022-08-28T01:25:11.468Z,2.22
2022-08-28T01:27:38.667Z,2.30
2022-08-28T01:30:05.380Z,2.25
2022-08-28T01:32:32.019Z,2.53
2022-08-28T01:35:02.051Z,2.28
2022-08-28T01:37:29.020Z,2.38
2022-08-28T01:39:55.616Z,2.33
2022-08-28T01:42:22.510Z,1.90
2022-08-28T01:44:50.169Z,2.20
2022-08-28T01:47:16.974Z,1.60
2022-08-28T01:49:43.733Z,1.90
2022-08-28T01:52:10.310Z,2.30
2022-08-28T01:54:38.499Z,2.03
2022-08-28T01:57:05.818Z,2.05
2022-08-28T01:59:33.294Z,2.13
2022-08-28T02:01:59.962Z,2.53
2022-08-28T02:04:31.724Z,1.83
2022-08-28T02:06:59.351Z,2.10
2022-08-28T02:09:25.935Z,2.20
2022-08-28T02:11:52.732Z,2.30
2022-08-28T02:14:19.382Z,2.35
2022-08-28T02:16:46.552Z,2.22
2022-08-28T02:19:13.274Z,2.10
2022-08-28T02:21:40.272Z,2.35
2022-08-28T02:24:07.026Z,1.85
2022-08-28T02:26:33.749Z,1.55
2022-08-28T02:29:00.700Z,2.50
2022-08-28T02:31:27.586Z,1.90
2022-08-28T02:33:55.604Z,2.53
2022-08-28T02:36:22.701Z,2.30
2022-08-28T02:38:54.048Z,2.08
2022-08-28T02:41:23.804Z,2.40
2022-08-28T02:43:50.566Z,2.70
2022-08-28T02:46:17.256Z,2.88
2022-08-28T02:48:44.824Z,2.25
2022-08-28T02:51:13.337Z,2.58
2022-08-28T02:53:40.520Z,2.58
2022-08-28T02:56:09.499Z,2.42
2022-08-28T02:58:39.433Z,2.42
2022-08-28T03:01:07.273Z,2.65
2022-08-28T03:03:33.892Z,2.50
2022-08-28T03:06:04.737Z,2.88
2022-08-28T03:08:32.291Z,2.60
2022-08-28T03:10:59.868Z,2.65
2022-08-28T03:13:27.442Z,2.60
2022-08-28T03:15:55.640Z,3.05
2022-08-28T03:18:22.967Z,3.65
2022-08-28T03:20:49.504Z,3.58
2022-08-28T03:23:28.032Z,3.10
2022-08-28T03:25:55.971Z,3.70
2022-08-28T03:28:23.015Z,3.63
2022-08-28T03:30:50.620Z,3.20
2022-08-28T03:33:17.791Z,3.70
2022-08-28T03:35:44.411Z,3.22
2022-08-28T03:38:11.719Z,3.20
2022-08-28T03:40:39.259Z,2.88
2022-08-28T03:43:06.973Z,3.97
2022-08-28T03:45:33.739Z,3.30
2022-08-28T03:48:03.919Z,3.78
2022-08-28T03:50:31.445Z,3.25
2022-08-28T03:52:59.314Z,3.72
2022-08-28T03:55:26.659Z,3.17
2022-08-28T03:57:53.274Z,3.47
2022-08-28T04:00:20.460Z,3.50
2022-08-28T04:02:47.092Z,3.53
2022-08-28T04:05:18.502Z,4.13
2022-08-28T04:07:45.187Z,4.68
2022-08-28T04:10:12.488Z,4.13
2022-08-28T04:12:39.148Z,3.92
2022-08-28T04:15:07.157Z,3.85
2022-08-28T04:17:33.981Z,3.72
2022-08-28T04:20:03.444Z,3.85
2022-08-28T04:22:30.307Z,3.88
2022-08-28T04:24:56.897Z,4.00
2022-08-28T04:27:23.560Z,4.28
2022-08-28T04:29:50.197Z,3.78
2022-08-28T04:32:17.027Z,3.80
2022-08-28T04:34:43.647Z,3.80
2022-08-28T04:37:10.292Z,3.70
2022-08-28T04:39:37.951Z,3.35
2022-08-28T04:42:04.611Z,3.65
2022-08-28T04:44:31.443Z,3.50
2022-08-28T04:46:57.979Z,3.17
2022-08-28T04:49:26.079Z,4.28
2022-08-28T04:51:52.871Z,3.40
2022-08-28T04:54:21.175Z,3.40
2022-08-28T04:56:47.753Z,4.22
2022-08-28T04:59:14.431Z,3.63
2022-08-28T05:01:44.847Z,3.80
2022-08-28T05:04:14.265Z,3.73
2022-08-28T05:06:45.976Z,3.95
2022-08-28T05:09:17.516Z,3.50
2022-08-28T05:11:47.057Z,3.47
2022-08-28T05:14:16.271Z,3.65
2022-08-28T05:16:44.479Z,3.05
2022-08-28T05:19:11.193Z,3.55
2022-08-28T05:21:38.899Z,3.80
2022-08-28T05:24:06.442Z,3.35
2022-08-28T05:26:33.282Z,3.83
2022-08-28T05:29:00.574Z,3.53
2022-08-28T05:31:28.810Z,3.45
2022-08-28T05:33:55.670Z,3.20
2022-08-28T05:36:23.167Z,3.40
2022-08-28T05:38:55.583Z,4.03
2022-08-28T05:41:23.521Z,3.45
2022-08-28T05:43:50.152Z,3.10
2022-08-28T05:46:17.394Z,3.17
2022-08-28T05:48:45.610Z,3.67
2022-08-28T05:51:14.513Z,3.60
2022-08-28T05:53:43.017Z,3.10
2022-08-28T05:56:10.788Z,3.88
2022-08-28T05:58:37.823Z,3.30
2022-08-28T06:01:07.565Z,3.38
2022-08-28T06:03:34.150Z,3.50
2022-08-28T06:06:00.845Z,3.20
2022-08-28T06:08:32.314Z,3.65
2022-08-28T06:11:02.128Z,3.33
2022-08-28T06:13:30.324Z,3.38
2022-08-28T06:15:57.045Z,3.35
2022-08-28T06:18:24.316Z,3.55
2022-08-28T06:20:53.572Z,3.22
2022-08-28T06:23:23.815Z,3.20
2022-08-28T06:25:54.098Z,3.22
2022-08-28T06:28:25.291Z,3.50
2022-08-28T06:31:18.024Z,3.10
2022-08-28T06:33:38.946Z,3.40
2022-08-28T06:36:05.864Z,3.75
2022-08-28T06:38:34.756Z,3.55
2022-08-28T06:41:01.542Z,3.83
2022-08-28T06:43:29.476Z,3.55
2022-08-28T06:45:56.935Z,2.90
2022-08-28T06:48:25.098Z,3.28
2022-08-28T06:50:53.188Z,3.10
2022-08-28T06:53:21.579Z,2.97
2022-08-28T06:56:02.885Z,3.40
2022-08-28T06:58:31.336Z,3.28
2022-08-28T07:01:17.593Z,3.15
2022-08-28T07:03:45.387Z,4.13
2022-08-28T07:06:15.771Z,7.93
2022-08-28T07:08:43.312Z,7.28
2022-08-28T07:11:11.065Z,5.03
2022-08-28T07:13:37.692Z,5.35
2022-08-28T07:16:04.384Z,6.82
2022-08-28T07:18:30.969Z,7.47
2022-08-28T07:20:58.994Z,7.20
2022-08-28T07:23:26.200Z,5.68
2022-08-28T07:25:53.206Z,6.20
2022-08-28T07:28:20.012Z,5.93
2022-08-28T07:30:55.243Z,4.53
2022-08-28T07:33:21.882Z,4.88
2022-08-28T07:35:50.461Z,4.63
2022-08-28T07:38:17.222Z,3.85
2022-08-28T07:40:43.833Z,4.78
2022-08-28T07:43:29.262Z,3.90
2022-08-28T07:46:00.000Z,3.50
2022-08-28T07:48:27.237Z,3.47
2022-08-28T07:50:54.214Z,3.97
2022-08-28T07:53:21.035Z,3.05
2022-08-28T07:55:50.005Z,3.33
2022-08-28T07:58:16.796Z,3.30
2022-08-28T08:00:43.370Z,3.30
2022-08-28T08:03:10.027Z,2.92
2022-08-28T08:05:37.379Z,3.70
2022-08-28T08:08:04.040Z,3.55
2022-08-28T08:10:33.929Z,3.60
2022-08-28T08:13:00.976Z,3.38
2022-08-28T08:15:31.257Z,3.42
2022-08-28T08:17:58.052Z,2.95
2022-08-28T08:20:24.673Z,2.75
2022-08-28T08:22:51.233Z,3.05
2022-08-28T08:25:17.848Z,3.05
2022-08-28T08:27:46.115Z,2.85
2022-08-28T08:30:12.785Z,2.88
2022-08-28T08:32:40.009Z,3.35
2022-08-28T08:35:06.852Z,2.88
2022-08-28T08:37:33.482Z,3.17
2022-08-28T08:40:00.171Z,2.78
2022-08-28T08:42:30.067Z,2.63
2022-08-28T08:44:58.294Z,3.25
2022-08-28T08:47:43.775Z,3.30
2022-08-28T08:50:17.306Z,2.95
2022-08-28T08:53:02.686Z,3.45
2022-08-28T08:55:31.997Z,2.47
2022-08-28T08:58:22.558Z,2.45
2022-08-28T09:00:52.277Z,3.15
2022-08-28T09:03:45.494Z,4.13
2022-08-28T09:06:20.059Z,2.90
2022-08-28T09:08:48.854Z,2.95
2022-08-28T09:11:18.385Z,2.88
2022-08-28T09:13:57.983Z,3.10
2022-08-28T09:16:29.832Z,2.50
2022-08-28T09:18:58.052Z,2.90
2022-08-28T09:21:30.182Z,3.20
2022-08-28T09:24:00.233Z,2.70
2022-08-28T09:26:29.967Z,2.65
2022-08-28T09:29:17.272Z,2.70
2022-08-28T09:31:44.514Z,2.50
2022-08-28T09:34:27.860Z,2.75
2022-08-28T09:36:56.349Z,2.70
2022-08-28T09:39:24.715Z,2.58
2022-08-28T09:42:11.007Z,2.90
2022-08-28T09:44:53.025Z,2.70
2022-08-28T09:47:45.956Z,2.30
2022-08-28T09:50:33.961Z,2.47
2022-08-28T09:53:14.699Z,2.45
2022-08-28T09:56:03.568Z,2.25
2022-08-28T09:58:33.648Z,2.38
2022-08-28T10:01:07.742Z,2.50
2022-08-28T10:06:21.230Z,2.53
2022-08-28T10:09:17.182Z,2.50
2022-08-28T10:11:52.496Z,3.10
2022-08-28T10:14:26.026Z,1.98
2022-08-28T10:17:00.476Z,2.05
2022-08-28T10:19:29.969Z,2.22
2022-08-28T10:22:06.447Z,2.53
2022-08-28T10:24:35.978Z,2.65
2022-08-28T10:27:02.577Z,2.47
2022-08-28T10:29:43.056Z,3.40
2022-08-28T10:32:28.159Z,2.90
2022-08-28T10:35:24.731Z,2.58
2022-08-28T10:38:10.238Z,2.85
2022-08-28T10:40:36.887Z,2.40
2022-08-28T10:43:12.611Z,2.75
2022-08-28T10:45:39.461Z,2.28
2022-08-28T10:48:06.064Z,2.78
2022-08-28T10:50:38.903Z,2.08
2022-08-28T10:53:12.844Z,2.35
2022-08-28T10:55:54.693Z,3.00
2022-08-28T10:58:24.925Z,2.65
2022-08-28T11:00:54.177Z,2.58
2022-08-28T11:03:34.075Z,2.58
2022-08-28T11:06:07.793Z,1.92
2022-08-28T11:08:35.487Z,2.30
2022-08-28T11:11:03.096Z,2.42
2022-08-28T11:13:48.689Z,1.92
2022-08-28T11:16:31.177Z,2.28
2022-08-28T11:19:14.419Z,2.50
2022-08-28T11:21:52.535Z,2.30
2022-08-28T11:24:43.575Z,2.00
2022-08-28T11:27:23.119Z,3.00
2022-08-28T11:30:08.572Z,2.05
2022-08-28T11:32:35.095Z,2.38
2022-08-28T11:35:10.676Z,2.13
2022-08-28T11:37:39.353Z,2.42
2022-08-28T11:40:24.658Z,2.13
2022-08-28T11:42:51.240Z,2.67
2022-08-28T11:45:18.900Z,2.35
2022-08-28T11:47:47.223Z,2.28
2022-08-28T11:50:22.531Z,2.15
2022-08-28T11:52:52.177Z,2.28
2022-08-28T11:55:33.819Z,2.08
2022-08-28T12:00:39.549Z,2.25
2022-08-28T12:03:13.886Z,1.83
2022-08-28T12:05:45.478Z,2.58
2022-08-28T12:08:13.520Z,2.63
2022-08-28T12:10:46.487Z,2.00
2022-08-28T12:13:32.972Z,1.90
2022-08-28T12:16:05.036Z,1.83
2022-08-28T12:18:42.724Z,1.98
2022-08-28T12:21:14.769Z,2.10
2022-08-28T12:23:58.909Z,1.77
2022-08-28T12:26:30.987Z,2.25
2022-08-28T12:28:57.594Z,2.67
2022-08-28T12:31:47.347Z,2.00
2022-08-28T12:34:32.565Z,2.20
2022-08-28T12:37:00.390Z,2.08
2022-08-28T12:39:28.426Z,1.90
2022-08-28T12:41:55.218Z,1.92
2022-08-28T12:44:30.172Z,1.63
2022-08-28T12:46:57.130Z,2.03
2022-08-28T12:49:26.834Z,1.75
2022-08-28T12:52:06.774Z,1.80
2022-08-28T12:54:34.825Z,2.38
2022-08-28T12:57:04.929Z,1.83
2022-08-28T12:59:34.849Z,1.60
2022-08-28T13:02:02.948Z,2.13
2022-08-28T13:04:34.413Z,2.20
2022-08-28T13:07:05.229Z,1.88
2022-08-28T13:09:31.905Z,2.00
2022-08-28T13:11:58.662Z,1.70
2022-08-28T13:14:38.665Z,1.85
2022-08-28T13:17:07.952Z,2.05
2022-08-28T13:19:35.176Z,1.85
2022-08-28T13:22:03.900Z,1.90
2022-08-28T13:24:39.023Z,2.10
2022-08-28T13:27:07.780Z,1.63
2022-08-28T13:29:37.040Z,1.50
2022-08-28T13:32:07.661Z,2.00
2022-08-28T13:34:35.484Z,1.95
2022-08-28T13:37:04.240Z,1.65
2022-08-28T13:39:36.333Z,1.60
2022-08-28T13:42:08.392Z,1.63
2022-08-28T13:44:37.407Z,1.80
2022-08-28T13:47:06.801Z,1.50
2022-08-28T13:49:34.543Z,1.70
2022-08-28T13:52:02.251Z,1.63
2022-08-28T13:54:30.341Z,1.73
2022-08-28T13:56:58.453Z,1.85
2022-08-28T13:59:25.287Z,1.80
2022-08-28T14:02:12.968Z,1.65
2022-08-28T14:04:40.135Z,1.95
2022-08-28T14:07:08.007Z,1.52
2022-08-28T14:09:35.640Z,1.60
2022-08-28T14:12:03.312Z,1.77
2022-08-28T14:14:29.887Z,1.63
2022-08-28T14:16:56.615Z,1.63
2022-08-28T14:19:23.638Z,1.70
2022-08-28T14:21:51.114Z,1.83
2022-08-28T14:24:18.053Z,1.63
2022-08-28T14:26:45.762Z,1.77
2022-08-28T14:29:12.955Z,1.67
2022-08-28T14:31:41.214Z,2.20
2022-08-28T14:34:08.936Z,1.48
2022-08-28T14:36:36.757Z,1.60
2022-08-28T14:39:07.508Z,1.65
2022-08-28T14:41:34.590Z,1.48
2022-08-28T14:44:01.508Z,1.85
2022-08-28T14:46:29.676Z,1.77
2022-08-28T14:48:57.749Z,1.45
2022-08-28T14:51:24.724Z,2.00
2022-08-28T14:53:52.049Z,1.40
2022-08-28T14:56:19.320Z,1.50
2022-08-28T14:58:45.884Z,1.75
2022-08-28T15:01:40.420Z,1.73
2022-08-28T15:04:09.462Z,1.73
2022-08-28T15:06:36.753Z,1.55
2022-08-28T15:09:04.097Z,1.27
2022-08-28T15:11:30.968Z,1.83
2022-08-28T15:13:58.739Z,1.73
2022-08-28T15:16:30.064Z,1.50
2022-08-28T15:18:58.112Z,1.90
2022-08-28T15:21:24.679Z,1.80
2022-08-28T15:23:52.034Z,1.38
2022-08-28T15:26:20.009Z,2.05
2022-08-28T15:28:46.706Z,1.48
2022-08-28T15:31:13.354Z,1.40
2022-08-28T15:33:44.628Z,1.20
2022-08-28T15:36:12.788Z,1.50
2022-08-28T15:38:58.119Z,1.30
2022-08-28T15:41:24.782Z,1.50
2022-08-28T15:43:55.352Z,1.55
2022-08-28T15:46:23.077Z,1.48
2022-08-28T15:48:50.278Z,1.55
2022-08-28T15:51:25.596Z,1.75
2022-08-28T15:53:52.756Z,1.65
2022-08-28T15:56:20.062Z,1.52
2022-08-28T15:58:46.662Z,1.70
2022-08-28T16:01:13.774Z,2.30
2022-08-28T16:03:41.123Z,2.92
2022-08-28T16:06:12.906Z,2.90
2022-08-28T16:08:39.495Z,3.25
2022-08-28T16:11:06.415Z,3.75
2022-08-28T16:13:33.051Z,3.03
2022-08-28T16:15:59.715Z,3.00
2022-08-28T16:18:26.431Z,2.80
2022-08-28T16:20:52.956Z,2.33
2022-08-28T16:23:19.569Z,2.20
2022-08-28T16:25:46.229Z,2.28
2022-08-28T16:28:12.832Z,2.25
2022-08-28T16:30:43.777Z,1.95
2022-08-28T16:33:11.289Z,1.63
2022-08-28T16:35:39.295Z,2.22
2022-08-28T16:38:17.879Z,1.90
2022-08-28T16:40:45.237Z,1.95
2022-08-28T16:43:12.425Z,2.10
2022-08-28T16:45:41.456Z,1.75
2022-08-28T16:48:08.187Z,2.38
2022-08-28T16:50:34.721Z,1.65
2022-08-28T16:53:06.332Z,1.83
2022-08-28T16:55:33.866Z,1.80
2022-08-28T16:58:00.577Z,1.58
2022-08-28T17:00:27.261Z,1.90
2022-08-28T17:02:54.051Z,1.35
2022-08-28T17:05:20.696Z,1.98
2022-08-28T17:07:47.849Z,1.30
2022-08-28T17:10:15.518Z,1.27
2022-08-28T17:12:42.089Z,1.50
2022-08-28T17:15:09.354Z,1.52
2022-08-28T17:17:38.301Z,1.50
2022-08-28T17:20:06.083Z,1.40
2022-08-28T17:22:35.084Z,1.15
2022-08-28T17:25:07.657Z,1.63
2022-08-28T17:27:34.497Z,1.52
2022-08-28T17:30:05.057Z,1.30
2022-08-28T17:32:32.220Z,1.50
2022-08-28T17:34:58.981Z,1.58
2022-08-28T17:37:25.627Z,1.40
2022-08-28T17:39:53.627Z,1.42
2022-08-28T17:42:20.278Z,1.30
2022-08-28T17:44:47.005Z,1.13
2022-08-28T17:47:13.674Z,1.20
2022-08-28T17:49:40.639Z,1.45
2022-08-28T17:52:07.286Z,1.30
2022-08-28T17:54:33.906Z,1.50
2022-08-28T17:57:00.722Z,2.17
2022-08-28T17:59:27.818Z,1.30
2022-08-28T18:01:54.695Z,1.90
2022-08-28T18:04:24.507Z,1.88
2022-08-28T18:06:54.040Z,1.67
2022-08-28T18:09:21.192Z,1.30
2022-08-28T18:11:47.852Z,1.30
2022-08-28T18:14:14.574Z,1.70
2022-08-28T18:16:41.215Z,1.40
2022-08-28T18:19:08.679Z,1.40
2022-08-28T18:21:35.655Z,1.42
2022-08-28T18:24:02.419Z,1.60
2022-08-28T18:26:29.006Z,1.67
2022-08-28T18:28:56.148Z,1.85
2022-08-28T18:31:23.407Z,1.88
2022-08-28T18:33:50.135Z,1.30
2022-08-28T18:36:17.130Z,2.03
2022-08-28T18:38:44.132Z,1.45
2022-08-28T18:41:10.909Z,1.52
2022-08-28T18:43:37.707Z,1.20
2022-08-28T18:46:05.101Z,1.30
2022-08-28T18:48:32.105Z,1.42
2022-08-28T18:50:58.655Z,1.50
2022-08-28T18:53:25.333Z,1.50
2022-08-28T18:55:53.805Z,1.70
2022-08-28T18:58:21.338Z,1.73
2022-08-28T19:00:48.167Z,1.55
2022-08-28T19:03:15.571Z,1.35
2022-08-28T19:05:42.329Z,1.63
2022-08-28T19:08:09.151Z,1.42
2022-08-28T19:10:36.914Z,1.70
2022-08-28T19:13:04.262Z,1.27
2022-08-28T19:15:31.526Z,1.80
2022-08-28T19:18:02.435Z,1.48
2022-08-28T19:20:29.590Z,1.75
2022-08-28T19:22:56.980Z,1.73
2022-08-28T19:25:27.900Z,2.03
2022-08-28T19:27:56.348Z,1.33
2022-08-28T19:30:27.143Z,1.48
2022-08-28T19:32:53.933Z,1.88
2022-08-28T19:35:20.683Z,1.60
2022-08-28T19:37:51.259Z,1.42
2022-08-28T19:40:17.891Z,1.45
2022-08-28T19:42:44.537Z,1.52
2022-08-28T19:45:12.865Z,1.60
2022-08-28T19:47:40.127Z,1.40
2022-08-28T19:50:08.441Z,1.80
2022-08-28T19:52:36.381Z,1.30
2022-08-28T19:55:06.066Z,1.48
2022-08-28T19:57:33.012Z,1.75
2022-08-28T20:00:00.191Z,1.30
2022-08-28T20:02:27.282Z,1.60
2022-08-28T20:04:54.555Z,1.67
2022-08-28T20:07:21.320Z,1.73
2022-08-28T20:09:47.960Z,1.60
2022-08-28T20:12:14.656Z,1.83
2022-08-28T20:14:42.672Z,1.50
2022-08-28T20:17:09.297Z,1.73
2022-08-28T20:19:36.004Z,1.42
2022-08-28T20:22:06.815Z,1.65
2022-08-28T20:24:33.611Z,1.67
2022-08-28T20:27:00.192Z,1.80
2022-08-28T20:29:26.963Z,1.60
2022-08-28T20:31:54.268Z,1.80
2022-08-28T20:34:21.371Z,1.70
2022-08-28T20:36:48.377Z,1.55
2022-08-28T20:39:15.582Z,1.90
2022-08-28T20:41:42.606Z,1.30
2022-08-28T20:44:10.460Z,1.40
2022-08-28T20:46:40.860Z,1.60
2022-08-28T20:49:09.435Z,1.63
2022-08-28T20:51:56.345Z,1.70
2022-08-28T20:54:30.118Z,1.88
2022-08-28T20:56:57.895Z,1.83
2022-08-28T20:59:34.395Z,1.75
2022-08-28T21:02:07.972Z,1.75
2022-08-28T21:04:36.867Z,1.38
2022-08-28T21:07:05.863Z,1.83
2022-08-28T21:09:35.879Z,1.70
2022-08-28T21:12:19.868Z,1.40
2022-08-28T21:14:51.533Z,1.60
2022-08-28T21:17:22.605Z,1.45
2022-08-28T21:20:00.341Z,1.95
2022-08-28T21:22:27.111Z,1.52
2022-08-28T21:24:54.014Z,1.75
2022-08-28T21:27:20.621Z,1.65
2022-08-28T21:29:47.851Z,1.58
2022-08-28T21:32:17.404Z,1.75
2022-08-28T21:34:43.962Z,1.98
2022-08-28T21:37:10.809Z,1.80
2022-08-28T21:39:37.502Z,1.90
2022-08-28T21:42:04.040Z,1.80
2022-08-28T21:44:30.626Z,2.00
2022-08-28T21:46:58.819Z,1.83
2022-08-28T21:49:25.580Z,1.83
2022-08-28T21:51:52.135Z,1.73
2022-08-28T21:54:23.119Z,1.95
2022-08-28T21:56:56.241Z,2.10
2022-08-28T21:59:25.422Z,1.73
2022-08-28T22:01:55.100Z,1.77
2022-08-28T22:04:21.778Z,1.58
2022-08-28T22:06:48.394Z,1.75
2022-08-28T22:09:15.015Z,1.40
2022-08-28T22:11:41.636Z,1.73
2022-08-28T22:14:08.354Z,1.90
2022-08-28T22:16:35.006Z,1.98
2022-08-28T22:19:01.572Z,2.15
2022-08-28T22:21:47.145Z,2.10
2022-08-28T22:24:13.831Z,1.95
2022-08-28T22:26:40.928Z,1.45
2022-08-28T22:29:08.147Z,2.30
2022-08-28T22:31:35.163Z,1.40
2022-08-28T22:34:04.249Z,2.03
2022-08-28T22:36:33.138Z,2.15
2022-08-28T22:38:59.689Z,2.08
2022-08-28T22:41:26.692Z,1.60
2022-08-28T22:43:53.312Z,1.90
2022-08-28T22:46:20.686Z,1.85
2022-08-28T22:48:47.844Z,3.17
2022-08-28T22:51:15.737Z,2.33
2022-08-28T22:53:43.729Z,1.90
2022-08-28T22:56:11.716Z,2.67
2022-08-28T22:58:38.451Z,2.22
2022-08-28T23:01:07.231Z,1.85
2022-08-28T23:03:34.386Z,2.08
2022-08-28T23:06:01.134Z,2.03
2022-08-28T23:08:33.865Z,1.73
2022-08-28T23:11:00.968Z,1.42
2022-08-28T23:13:27.929Z,1.58
2022-08-28T23:15:54.489Z,1.95
2022-08-28T23:18:21.206Z,1.63
2022-08-28T23:20:50.550Z,1.55
2022-08-28T23:23:20.856Z,1.83
2022-08-28T23:25:47.537Z,1.73
2022-08-28T23:28:14.296Z,2.85
2022-08-28T23:30:44.090Z,2.10
2022-08-28T23:33:19.778Z,1.92
2022-08-28T23:35:51.631Z,2.17
2022-08-28T23:38:18.323Z,1.80
2022-08-28T23:40:46.118Z,1.98
2022-08-28T23:43:12.739Z,1.80
2022-08-28T23:45:41.673Z,2.35
2022-08-28T23:48:08.498Z,2.10
2022-08-28T23:50:35.406Z,1.80
2022-08-28T23:53:03.675Z,1.90
2022-08-28T23:55:30.925Z,2.10
2022-08-28T23:58:02.957Z,2.08
